Airfield :
LOGIN :

Register | Disclaimer

   EN    FR    IT 

 










Legend :    VFR   Marginal VFR   IFR   Intensive IFR   Very Intensive IFR
Visi :
Ceiling :
>= 8 km
>= 3000ft
5 to 8 km
1000 to 3000 ft
1500m to 5 km
500 to 1000 ft
800 to 1500m
200 to 500 ft
< 800m
< 200 ft
Symbols :   Thunderstorms  Fog  Heavy snow  Heavy precipitations  Wind > 20 kt
SIGMETs :     Misc.  Thunderstorms  Icing  Turbulence  Mountain Waves  Volcanic Ashes






- Airport Elevation : 2425 ft


ETHA - Altenstadt Army

CURRENT METAR :
  • 281220Z 25015KT 9999 SCT030 BKN040 01/M05 Q1019 BLU

EXPIRED METARs :
  • 281120Z 27013KT 9999 SCT025 BKN050 01/M05 Q1020 BLU
  • 281020Z 27017KT 9999 SCT020 SCT026TCU BKN042 00/M04 Q1020 BLU FCST CANCEL

TAF AMD TAF ETHA
Valid from the 28 at 09:00 until the 28 at 18:00 UTC


280920Z 2809/2818 28010G20KT 9999 NSW FEW020 SCT050
TEMPO 2809/2811 27020G30KT 4000 -SHSN FEW010 BKN015TCU
BECMG 2815/2817 24007KT 9999 NSW FEW050 BKN130 BKN220 CANCEL 1020



MET'MAP, your aeronautical weather chart ! - Copyright ORBIFLY December 2007 - Disclaimer

ORBIFLY MET'MAP TEAM :

Programming & Development : Alexandra Zaïnal
Concept & original design : Baudouin d'Aumeries
Assistance for programming : Marc-Olivier Méhu
Technical & hardware support : Manuel Goepfert

Contact : metmap@orbifly.com




SOURCES & CREDITS :

   NOAA